Royal City, WA

7:02 AM PST en Marzo 03, 2015 (GMT -0800)
Royal City WEST | Change Station
CLOSE
Current Station
Estación meteorológica personal
Location: Royal City, WA
Altura: 1250 ft
Estaciones meteorológicas cercanas

Alt 1250 ft 46.95 °N, 119.75 °W | Updated 9 seconds ago

Despejado
Despejado
29.1 ° F
Sensación térmica 23 ° F
N
5.6
Viento Variable Viento desde NNE
Gusts 7.4 mph

Hoy
Alta -- | Baja -- ° F
--% Posibilidad de precipitaciones
Ayer
Alta -- | Baja -- ° F
Precip. -- pul
6:34 AM 5:46 PM
Gibosa creciente, 96% visible
Presión 30.26 pul
Visibilidad 10.0 Millas
Nubes Despejado
Vientos helados 23 ° F
Punto de rocío 8 ° F
Humedad 40%
Precipitaciones 0.00 pul
Espesor de la nieve No disponible.
UV 0.0 de una escala de 12
Polen 5.40 de una escala de 12
Calidad del aire No disponible.
Flu Activity No disponible.
METAR KMWH 031452Z 02004KT 10SM CLR M02/M12 A3023 RMK AO2 SLP247 T10221117 50009

More Conditions Fewer Conditions

Presión 30.26 pul
Visibilidad 10.0 Millas
Nubes Despejado
Vientos helados 23 ° F
Punto de rocío 8 ° F
Humedad 40%
Precipitaciones 0.00 pul
Espesor de la nieve No disponible.
UV 0.0 de una escala de 12
Polen 5.40 de una escala de 12
Calidad del aire No disponible.
Flu Activity No disponible.
METAR KMWH 031452Z 02004KT 10SM CLR M02/M12 A3023 RMK AO2 SLP247 T10221117 50009

More Conditions Fewer Conditions

10-Day Weather Forecast

Almanac

Astronomía

Mar. 03, 2015 Salida Puesta
Hora real
Crepúsculo civil
Crepúsculo náutico
Crepúsculo astronómico
Luna
Horas de luz
Horas de luz
Tomorrow will be .
, % of the Moon is Illuminated

Extremos de hoy

Máximos del estado Bajos del estado

Community

WunderPhotos

Upload Photos

1,802,133 ¡fotos cargadas!

WunderBlogs® & News

Nearby

Calidad del aire

  Calidad del aire Índice AQ Contaminante
Not available.

Grosos de nieve

Estación Profundido Altura

Actividad de terremotos

Ciudad Distance Mag. Tiempo y dato
Magnitud mínima muestra es 2,5.

Temperaturas de aguas costeras

Lugar Temperatura

Estaciones meteorológicas cercanas